Latest Weather Observations for Murrurundi Gap

IDN60801

Issued at 12:52 pm EDT Wednesday 16 January 2019 (issued every 10 minutes, with the page automatically refreshed every 10 minutes)

About weather observations | Map of weather stations | Latest weather observations for NSW | Other Formats
Station Details ID: 061392 Name: MURRURUNDI GAP AWS Lat: -31.74 Lon: 150.79 Height: 729.4 m
Data from the previous 72 hours. | See also: Recent months at Murrurundi Gap
Date/Time
EDT
Temp
°C
App
Temp
°C
Dew
Point
°C
Rel
Hum
%
Delta-T
°C
Wind Press
QNH
hPa
Press
MSL
hPa
Rain since
9am
mm
Dir  Spd
km/h
Gust
km/h
Spd
kts
Gust
kts
16/12:30pm 33.6 31.2 12.6 28 12.9 NW 17 24 9 13 1014.8 1010.6 0.0
16/12:00pm 33.3 30.9 14.4 32 11.9 NW 20 32 11 17 1015.1 1010.9 0.0
16/11:30am 32.2 29.4 14.3 33 11.2 NW 22 28 12 15 1015.1 1010.9 0.0
16/11:00am 31.2 28.1 14.4 36 10.5 NW 24 33 13 18 1015.3 1011.1 0.0
16/10:30am 30.5 26.0 13.7 35 10.4 NW 30 39 16 21 1015.2 1011.0 0.0
16/10:00am 29.7 24.9 13.9 38 9.8 NW 32 41 17 22 1015.4 1011.2 0.0
16/09:30am 29.0 24.9 14.8 42 8.9 NW 30 37 16 20 1015.3 1011.1 0.0
16/09:00am 28.8 24.1 14.2 40 9.0 NW 32 43 17 23 1015.1 1010.9 0.0
16/08:30am 28.2 24.4 14.8 44 8.4 NW 28 35 15 19 1015.0 1010.8 0.0
16/08:00am 27.5 23.9 15.2 47 7.7 NNW 28 35 15 19 1014.8 1010.6 0.0
16/07:30am 26.9 23.0 15.6 50 7.1 NNW 30 35 16 19 1014.6 1010.4 0.0
16/07:00am 26.0 23.4 16.0 54 6.3 NW 24 30 13 16 1014.6 1010.4 0.0
16/06:30am 26.1 23.6 16.1 54 6.3 NNW 24 30 13 16 1014.3 1010.0 0.0
16/06:00am 26.0 23.6 16.3 55 6.1 NW 24 30 13 16 1014.4 1010.1 0.0
16/05:30am 26.0 23.9 16.3 55 6.1 NW 22 28 12 15 1013.9 1009.7 0.0
16/05:00am 26.4 23.9 16.1 53 6.5 NW 24 28 13 15 1013.8 1009.6 0.0
16/04:30am 26.1 23.6 16.1 54 6.3 NW 24 30 13 16 1013.7 1009.5 0.0
16/04:00am 25.8 22.8 15.8 54 6.3 NW 26 30 14 16 1013.7 1009.5 0.0
16/03:30am 26.9 23.9 15.9 51 6.9 NW 26 28 14 15 1013.7 1009.5 0.0
16/03:00am 26.1 23.2 15.2 51 6.8 NW 24 26 13 14 1013.9 1009.7 0.0
16/02:30am 27.3 24.5 15.3 48 7.5 NW 24 28 13 15 1014.1 1009.9 0.0
16/02:00am 27.7 23.8 15.4 47 7.7 NW 30 35 16 19 1014.0 1009.8 0.0
16/01:30am 28.2 25.7 14.1 42 8.7 WNW 20 26 11 14 1014.3 1010.0 0.0
16/01:00am 28.5 26.8 13.6 40 9.1 WNW 15 20 8 11 1014.6 1010.4 0.0
16/12:30am 29.0 27.4 12.8 36 9.8 WNW 13 19 7 10 1014.7 1010.5 0.0
16/12:00am 30.1 28.4 12.5 34 10.7 N 13 22 7 12 1014.7 1010.5 0.0
 
Date/Time
EDT
Temp
°C
App
Temp
°C
Dew
Point
°C
Rel
Hum
%
Delta-T
°C
Wind Press
QNH
hPa
Press
MSL
hPa
Rain since
9am
mm
Dir  Spd
km/h
Gust
km/h
Spd
kts
Gust
kts
15/11:30pm 30.4 28.5 11.9 32 11.1 NNW 13 19 7 10 1014.7 1010.5 0.0
15/11:00pm 30.0 28.6 9.5 28 11.9 ENE 7 13 4 7 1014.9 1010.7 0.0
15/10:30pm 30.9 29.0 9.2 26 12.6 SE 9 13 5 7 1014.9 1010.7 0.0
15/10:00pm 31.7 31.6 9.3 25 13.0 CALM 0 0 0 0 1015.1 1010.9 0.0
15/09:30pm 32.1 31.9 9.0 24 13.4 CALM 0 0 0 0 1015.1 1010.9 0.0
15/09:00pm 32.8 32.6 8.9 23 13.9 CALM 0 0 0 0 1015.0 1010.8 0.0
15/08:30pm 33.2 32.0 7.9 21 14.5 SSE 4 7 2 4 1014.7 1010.5 0.0
15/08:00pm 33.5 31.8 8.2 21 14.6 SSW 7 9 4 5 1014.4 1010.1 0.0
15/07:30pm 34.4 32.5 8.9 21 14.9 SSW 9 13 5 7 1014.4 1010.1 0.0
15/07:00pm 34.8 32.4 8.5 20 15.3 S 11 15 6 8 1014.4 1010.1 0.0
15/06:30pm 35.0 32.4 7.9 19 15.6 S 11 17 6 9 1014.1 1009.9 0.0
15/06:00pm 36.1 33.9 8.0 18 16.3 S 9 20 5 11 1014.0 1009.8 0.0
15/05:30pm 35.7 32.7 7.7 18 16.2 SSE 13 20 7 11 1014.0 1009.8 0.0
15/05:00pm 35.7 31.8 6.9 17 16.4 S 17 32 9 17 1014.0 1009.8 0.0
15/04:30pm 35.8 34.2 10.1 21 15.4 SE 9 22 5 12 1014.4 1010.1 0.0
15/04:00pm 35.4 33.7 11.1 23 14.7 NW 11 20 6 11 1014.8 1010.6 0.0
15/03:30pm 34.9 31.7 10.0 22 14.8 WNW 17 26 9 14 1015.3 1011.1 0.0
15/03:00pm 35.4 33.5 10.4 22 15.0 NW 11 17 6 9 1015.9 1011.7 0.0
15/02:30pm 34.2 31.6 10.7 24 14.1 WNW 15 24 8 13 1016.4 1012.2 0.0
15/02:00pm 33.8 32.0 12.2 27 13.2 NW 13 20 7 11 1016.7 1012.5 0.0
15/01:30pm 32.4 29.1 11.0 27 12.8 NNW 19 28 10 15 1017.0 1012.9 0.0
15/01:00pm 31.5 28.1 11.3 29 12.1 NW 20 32 11 17 1017.5 1013.3 0.0
15/12:30pm 30.5 27.2 11.5 31 11.4 NW 20 32 11 17 1018.0 1013.8 0.0
15/12:00pm 30.3 27.1 11.8 32 11.1 NW 20 28 11 15 1018.2 1014.1 0.0
15/11:30am 29.2 25.7 12.2 35 10.2 NW 22 30 12 16 1018.3 1014.2 0.0
15/11:00am 28.9 24.7 12.3 36 10.0 NW 26 33 14 18 1018.5 1014.4 0.0
15/10:30am 27.4 22.8 11.0 36 9.6 NNW 26 35 14 19 1018.7 1014.5 0.0
15/10:00am 27.2 22.8 11.7 38 9.2 NNW 26 37 14 20 1018.9 1014.7 0.0
15/09:30am 26.5 21.0 10.6 37 9.2 NNW 30 35 16 19 1018.9 1014.7 0.0
15/09:00am 25.9 19.9 10.9 39 8.7 NW 33 41 18 22 1019.0 1014.8 0.0
15/08:30am 26.1 20.6 11.8 41 8.4 NW 32 39 17 21 1018.9 1014.7 0.0
15/08:00am 25.9 22.0 13.4 46 7.6 NNW 26 32 14 17 1018.8 1014.6 0.0
15/07:30am 25.2 22.6 13.7 49 7.0 NNW 20 26 11 14 1018.5 1014.4 0.0
15/07:00am 24.7 21.7 13.6 50 6.7 NW 22 26 12 14 1018.2 1014.1 0.0
15/06:30am 24.4 21.7 13.0 49 6.8 NW 19 20 10 11 1017.8 1013.6 0.0
15/06:00am 25.3 23.4 12.9 46 7.4 WNW 15 19 8 10 1017.4 1013.2 0.0
15/05:30am 25.5 23.9 12.7 45 7.6 NW 13 17 7 9 1017.0 1012.9 0.0
15/05:00am 25.0 22.3 11.6 43 7.8 NW 17 19 9 10 1016.8 1012.6 0.0
15/04:30am 25.3 21.9 10.7 40 8.4 NW 19 20 10 11 1016.7 1012.5 0.0
15/04:00am 24.9 21.4 10.8 41 8.1 NW 20 24 11 13 1016.4 1012.2 0.0
15/03:30am 26.2 23.8 10.0 36 9.3 WNW 13 17 7 9 1016.4 1012.2 0.0
15/03:00am 27.4 25.3 9.7 33 10.2 WNW 11 15 6 8 1016.4 1012.2 0.0
15/02:30am 27.2 25.9 10.0 34 9.9 WNW 7 9 4 5 1016.7 1012.5 0.0
15/02:00am 27.6 27.7 10.3 34 10.0 CALM 0 0 0 0 1017.0 1012.9 0.0
15/01:30am 27.8 26.9 10.5 34 10.1 ESE 6 7 3 4 1017.0 1012.9 0.0
15/01:00am 27.2 25.7 10.4 35 9.7 ESE 9 11 5 6 1017.3 1013.1 0.0
15/12:30am 27.0 25.2 10.7 36 9.5 ESE 11 13 6 7 1017.6 1013.4 0.0
15/12:00am 26.8 25.5 11.3 38 9.1 ESE 9 13 5 7 1017.8 1013.6 0.0
 
Date/Time
EDT
Temp
°C
App
Temp
°C
Dew
Point
°C
Rel
Hum
%
Delta-T
°C
Wind Press
QNH
hPa
Press
MSL
hPa
Rain since
9am
mm
Dir  Spd
km/h
Gust
km/h
Spd
kts
Gust
kts
14/11:30pm 26.6 24.6 11.5 39 8.9 ESE 13 13 7 7 1017.8 1013.6 0.0
14/11:00pm 26.5 24.6 11.8 40 8.7 ESE 13 15 7 8 1018.0 1013.8 0.0
14/10:30pm 26.5 24.7 12.2 41 8.5 ESE 13 15 7 8 1018.1 1013.9 0.0
14/10:00pm 26.6 24.7 11.9 40 8.7 ESE 13 15 7 8 1018.0 1013.8 0.0
14/09:30pm 27.2 25.4 12.0 38 9.0 ESE 13 15 7 8 1017.9 1013.7 0.0
14/09:00pm 27.1 25.1 12.7 41 8.7 SE 15 17 8 9 1017.8 1013.6 0.0
14/08:30pm 28.3 26.1 12.2 37 9.7 SE 15 19 8 10 1017.6 1013.4 0.0
14/08:00pm 29.2 26.7 12.2 35 10.2 SSE 17 20 9 11 1017.5 1013.3 0.0
14/07:30pm 29.5 27.0 12.4 35 10.3 S 17 20 9 11 1017.3 1013.1 0.0
14/07:00pm 30.5 27.6 11.0 30 11.6 SE 17 20 9 11 1017.1 1013.0 0.0
14/06:30pm 31.3 28.7 10.6 28 12.3 SE 15 19 8 10 1016.9 1012.8 0.0
14/06:00pm 31.8 29.1 11.6 29 12.2 SE 17 24 9 13 1016.9 1012.8 0.0
14/05:30pm 31.9 29.5 12.7 31 11.8 ESE 17 24 9 13 1016.9 1012.8 0.0
14/05:00pm 32.0 29.8 13.2 31 11.6 E 17 24 9 13 1017.1 1013.0 0.0
14/04:30pm 32.5 30.3 13.2 31 11.9 ESE 17 28 9 15 1017.3 1013.1 0.0
14/04:00pm 32.5 31.4 10.5 26 13.1 ESE 7 17 4 9 1017.8 1013.6 0.0
14/03:30pm 32.2 30.9 12.4 30 12.1 ENE 11 17 6 9 1018.0 1013.8 0.0
14/03:00pm 33.0 32.5 12.1 28 12.7 NW 6 9 3 5 1018.5 1014.4 0.0
14/02:30pm 30.9 30.7 13.7 35 10.7 NE 7 15 4 8 1018.9 1014.7 0.0
14/02:00pm 31.0 31.2 14.6 37 10.3 E 7 15 4 8 1019.1 1014.9 0.0
14/01:30pm 30.2 30.0 13.0 34 10.5 NW 6 11 3 6 1019.4 1015.2 0.0
14/01:00pm 28.9 29.1 16.8 48 7.8 E 11 17 6 9 1019.8 1015.7 0.0
14/12:30pm 27.2 27.9 17.1 54 6.5 E 9 15 5 8 1020.3 1016.1 0.0
14/12:00pm 25.3 25.4 17.5 62 5.0 SE 13 17 7 9 1020.7 1016.6 0.0
14/11:30am 23.8 23.7 17.8 69 3.9 SE 15 20 8 11 1021.0 1016.9 0.0
14/11:00am 22.7 22.4 17.4 72 3.4 ESE 15 22 8 12 1021.2 1017.1 0.0
14/10:30am 22.8 22.3 17.7 73 3.3 ESE 17 22 9 12 1021.2 1017.1 0.0
14/10:00am 21.9 20.9 16.6 72 3.3 ESE 17 22 9 12 1021.3 1017.2 0.0
14/09:30am 22.7 22.2 17.8 74 3.1 E 17 20 9 11 1021.3 1017.2 0.0
14/09:00am 21.6 21.4 17.6 78 2.5 ESE 15 22 8 12 1021.3 1017.2 0.0
14/08:30am 19.7 19.4 18.2 91 1.0 ESE 17 22 9 12 1021.3 1017.2 0.0
14/08:10am 18.7 17.8 17.7 94 0.6 ESE 19 20 10 11 1021.0 1016.9 0.0
14/08:00am 18.3 17.6 18.3 100 0.0 ESE 19 22 10 12 1021.0 1016.9 0.0
14/07:52am 18.2 17.5 18.2 100 0.0 ESE 19 22 10 12 1021.1 1017.0 0.0
14/07:30am 18.1 17.3 18.1 100 0.0 ESE 19 22 10 12 1021.0 1016.9 0.0
14/07:00am 17.9 16.5 17.9 100 0.0 ESE 22 24 12 13 1020.5 1016.3 0.0
14/06:30am 17.9 16.5 17.9 100 0.0 ESE 22 26 12 14 1019.9 1015.8 0.0
14/06:00am 17.9 16.1 17.9 100 0.0 SE 24 28 13 15 1019.8 1015.7 0.0
14/05:57am 17.9 16.1 17.9 100 0.0 SE 24 28 13 15 1019.8 1015.7 0.0
14/05:30am 18.0 15.5 18.0 100 0.0 SE 28 33 15 18 1019.6 1015.5 0.0
14/05:17am 18.0 15.9 18.0 100 0.0 SE 26 30 14 16 1019.5 1015.4 0.0
14/05:00am 18.1 16.0 18.1 100 0.0 SE 26 30 14 16 1019.4 1015.2 0.0
14/04:30am 18.2 15.4 18.2 100 0.0 SE 30 33 16 18 1019.4 1015.2 0.0
14/04:00am 18.2 16.5 18.2 100 0.0 SE 24 33 13 18 1019.0 1014.8 0.0
14/03:30am 18.3 17.1 18.3 100 0.0 SE 22 26 12 14 1019.2 1015.0 0.0
14/03:00am 18.4 16.8 18.4 100 0.0 SE 24 28 13 15 1019.4 1015.2 0.0
14/02:54am 18.4 16.8 18.4 100 0.0 SE 24 28 13 15 1019.4 1015.2 0.0
14/02:33am 18.6 15.5 18.4 99 0.1 SE 32 37 17 20 1019.2 1015.0 0.0
14/02:30am 18.6 15.5 18.4 99 0.1 SE 32 37 17 20 1019.2 1015.0 0.0
14/02:00am 19.1 16.0 18.4 96 0.4 SE 32 39 17 21 1019.7 1015.6 0.0
14/01:30am 19.5 16.3 18.2 92 0.8 SE 32 39 17 21 1020.0 1015.9 0.0
14/01:00am 19.8 16.5 17.9 89 1.2 SE 32 37 17 20 1020.2 1016.0 0.0
14/12:30am 19.8 16.5 18.3 91 1.0 SE 33 41 18 22 1020.3 1016.1 0.0
14/12:00am 19.9 16.3 18.6 92 0.8 SE 35 41 19 22 1020.4 1016.2 0.0
 
Date/Time
EDT
Temp
°C
App
Temp
°C
Dew
Point
°C
Rel
Hum
%
Delta-T
°C
Wind Press
QNH
hPa
Press
MSL
hPa
Rain since
9am
mm
Dir  Spd
km/h
Gust
km/h
Spd
kts
Gust
kts
13/11:30pm 20.1 16.1 18.4 90 1.1 SE 37 44 20 24 1020.4 1016.2 0.0
13/11:00pm 20.5 16.5 18.4 88 1.3 SE 37 44 20 24 1020.4 1016.2 0.0
13/10:30pm 21.0 16.7 18.6 86 1.5 SE 39 46 21 25 1020.5 1016.3 0.0
13/10:00pm 21.1 16.7 18.5 85 1.7 SSE 39 46 21 25 1020.4 1016.2 0.0
13/09:30pm 21.2 16.4 18.4 84 1.8 SSE 41 48 22 26 1020.3 1016.1 0.0
13/09:00pm 21.6 17.8 18.2 81 2.2 SSE 35 46 19 25 1019.9 1015.8 0.0
13/08:30pm 22.5 18.2 17.8 75 3.0 SSE 37 48 20 26 1019.7 1015.6 0.0
13/08:00pm 23.3 19.5 18.0 72 3.4 SE 35 50 19 27 1019.5 1015.4 0.0
13/07:38pm 24.3 20.4 17.8 67 4.2 SE 35 54 19 29 1019.3 1015.1 0.0
13/07:30pm 24.8 20.9 17.8 65 4.5 SE 35 46 19 25 1019.2 1015.0 0.0
13/07:00pm 25.9 21.7 18.1 62 5.1 SSE 37 52 20 28 1018.9 1014.7 0.0
13/06:30pm 26.8 23.4 18.1 59 5.7 SSE 33 46 18 25 1018.7 1014.5 0.0
13/06:00pm 27.5 24.3 18.2 57 6.1 SSE 32 48 17 26 1018.3 1014.2 0.0
13/05:57pm 27.5 24.6 17.9 55 6.3 SSE 30 48 16 26 1018.3 1014.2 0.0
13/05:30pm 28.0 24.6 17.8 54 6.6 SSE 32 46 17 25 1018.3 1014.2 0.0
13/05:00pm 28.7 25.5 18.2 53 6.9 SSE 32 48 17 26 1018.2 1014.1 0.0
13/04:30pm 29.6 27.3 18.4 51 7.4 SSE 28 41 15 22 1018.3 1014.2 0.0
13/04:16pm 29.5 26.6 18.0 50 7.5 SE 30 48 16 26 1018.4 1014.3 0.0
13/04:00pm 29.9 27.7 18.7 51 7.4 SSE 28 44 15 24 1018.4 1014.3 0.0
13/03:30pm 30.1 27.6 17.2 46 8.4 SSE 26 39 14 21 1018.7 1014.5 0.0
13/03:00pm 31.0 29.0 17.3 43 8.9 SE 24 37 13 20 1018.8 1014.6 0.0
13/02:30pm 30.5 27.6 15.0 39 9.8 SE 24 37 13 20 1019.1 1014.9 0.0
13/02:00pm 31.8 30.0 16.1 38 10.1 ESE 20 35 11 19 1019.3 1015.1 0.0
13/01:30pm 30.4 27.5 14.1 37 10.1 ESE 22 33 12 18 1019.6 1015.5 0.0
13/01:00pm 30.8 28.6 14.8 37 10.1 SE 20 30 11 16 1020.0 1015.9 0.0

Other Formats:

Comma delimited format used in spreadsheet applications
http://www.bom.gov.au/fwo/IDN60801/IDN60801.95747.axf

JavaScript Object Notation format (JSON) in row-major order
http://www.bom.gov.au/fwo/IDN60801/IDN60801.95747.json